createdAt,value
2019-05-18T00:00:13.488Z,87.04
2019-05-18T00:01:13.496Z,86.74
2019-05-18T00:02:13.455Z,86.98
2019-05-18T00:03:13.456Z,87.38
2019-05-18T00:04:13.444Z,88.31
2019-05-18T00:05:13.434Z,87.90
2019-05-18T00:06:13.454Z,87.90
2019-05-18T00:07:13.444Z,87.79
2019-05-18T00:08:13.405Z,87.69
2019-05-18T00:09:13.385Z,88.20
2019-05-18T00:10:13.374Z,87.63
2019-05-18T00:11:13.371Z,88.24
2019-05-18T00:12:13.379Z,88.45
2019-05-18T00:13:13.345Z,88.34
2019-05-18T00:14:13.343Z,88.65
2019-05-18T00:15:13.323Z,88.65
2019-05-18T00:16:13.327Z,88.85
2019-05-18T00:17:24.910Z,89.67
2019-05-18T00:18:14.324Z,89.57
2019-05-18T00:19:13.277Z,89.57
2019-05-18T00:20:13.265Z,89.36
2019-05-18T00:21:13.286Z,89.36
2019-05-18T00:22:13.251Z,89.57
2019-05-18T00:23:13.239Z,89.97
2019-05-18T00:24:13.245Z,89.87
2019-05-18T00:25:13.221Z,89.67
2019-05-18T00:26:13.211Z,90.01
2019-05-18T00:27:13.187Z,89.87
2019-05-18T00:28:13.221Z,89.81
2019-05-18T00:29:13.170Z,89.87
2019-05-18T00:30:13.218Z,89.97
2019-05-18T00:31:13.200Z,89.81
2019-05-18T00:32:13.170Z,89.92
2019-05-18T00:33:13.151Z,89.51
2019-05-18T00:34:13.156Z,89.92
2019-05-18T00:35:13.115Z,89.97
2019-05-18T00:36:13.103Z,90.53
2019-05-18T00:37:13.113Z,90.32
2019-05-18T00:38:13.084Z,90.53
2019-05-18T00:39:13.113Z,90.01
2019-05-18T00:40:13.090Z,90.32
2019-05-18T00:41:13.066Z,90.42
2019-05-18T00:42:13.069Z,90.73
2019-05-18T00:43:13.051Z,90.73
2019-05-18T00:44:13.050Z,90.53
2019-05-18T00:45:13.049Z,90.53
2019-05-18T00:46:13.008Z,91.65
2019-05-18T00:47:12.979Z,91.49
2019-05-18T00:48:12.979Z,91.79
2019-05-18T00:49:12.960Z,91.55
2019-05-18T00:50:12.968Z,91.79
2019-05-18T00:51:12.944Z,91.14
2019-05-18T00:52:12.940Z,91.28
2019-05-18T00:53:12.918Z,91.39
2019-05-18T00:54:12.912Z,91.39
2019-05-18T00:55:12.930Z,91.89
2019-05-18T00:56:12.897Z,91.69
2019-05-18T00:57:12.873Z,91.89
2019-05-18T00:58:12.859Z,91.79
2019-05-18T00:59:16.102Z,92.20
2019-05-18T01:00:12.855Z,92.50
2019-05-18T01:01:12.883Z,92.24
2019-05-18T01:02:12.850Z,92.35
2019-05-18T01:03:12.842Z,92.04
2019-05-18T01:04:12.798Z,92.20
2019-05-18T01:05:12.802Z,92.45
2019-05-18T01:06:12.803Z,92.71
2019-05-18T01:07:12.827Z,92.65
2019-05-18T01:08:12.779Z,92.86
2019-05-18T01:09:12.757Z,92.55
2019-05-18T01:10:12.771Z,92.86
2019-05-18T01:11:12.787Z,92.65
2019-05-18T01:12:12.714Z,93.16
2019-05-18T01:13:12.705Z,93.26
2019-05-18T01:14:12.693Z,92.65
2019-05-18T01:15:12.686Z,93.06
2019-05-18T01:16:12.716Z,93.16
2019-05-18T01:17:12.682Z,93.26
2019-05-18T01:18:12.665Z,93.26
2019-05-18T01:19:12.646Z,93.06
2019-05-18T01:20:12.639Z,92.96
2019-05-18T01:21:12.658Z,93.06
2019-05-18T01:22:12.637Z,92.76
2019-05-18T01:23:12.624Z,92.90
2019-05-18T01:24:12.606Z,93.31
2019-05-18T01:25:12.576Z,93.62
2019-05-18T01:26:12.581Z,93.88
2019-05-18T01:27:12.956Z,93.82
2019-05-18T01:28:12.570Z,93.92
2019-05-18T01:29:12.558Z,93.51
2019-05-18T01:30:12.536Z,93.62
2019-05-18T01:31:12.517Z,93.62
2019-05-18T01:32:12.531Z,93.51
2019-05-18T01:33:12.506Z,94.02
2019-05-18T01:34:12.479Z,94.53
2019-05-18T01:35:12.524Z,94.23
2019-05-18T01:36:12.500Z,94.23
2019-05-18T01:37:12.485Z,94.23
2019-05-18T01:38:12.438Z,94.07
2019-05-18T01:39:12.463Z,94.12
2019-05-18T01:40:12.420Z,93.92
2019-05-18T01:41:12.404Z,94.94
2019-05-18T01:42:12.407Z,94.84
2019-05-18T01:43:12.394Z,94.78
2019-05-18T01:44:12.424Z,94.58
2019-05-18T01:45:16.850Z,94.37
2019-05-18T01:46:13.353Z,94.98
2019-05-18T01:47:12.343Z,95.19
2019-05-18T01:48:14.366Z,94.89
2019-05-18T01:49:12.346Z,95.09
2019-05-18T01:50:12.301Z,95.09
2019-05-18T01:51:12.304Z,95.19
2019-05-18T01:52:12.298Z,94.89
2019-05-18T01:53:12.312Z,94.89
2019-05-18T01:54:12.276Z,95.09
2019-05-18T01:55:12.267Z,95.39
2019-05-18T01:56:12.267Z,95.19
2019-05-18T01:57:12.245Z,95.80
2019-05-18T01:58:12.230Z,95.64
2019-05-18T01:59:12.260Z,95.64
2019-05-18T02:00:12.210Z,95.44
2019-05-18T02:01:12.202Z,95.85
2019-05-18T02:02:12.199Z,96.01
2019-05-18T02:03:12.178Z,95.95
2019-05-18T02:04:12.199Z,95.85
2019-05-18T02:05:12.153Z,95.85
2019-05-18T02:06:12.156Z,95.44
2019-05-18T02:07:12.178Z,95.60
2019-05-18T02:08:12.146Z,95.80
2019-05-18T02:09:12.124Z,95.95
2019-05-18T02:10:12.126Z,95.60
2019-05-18T02:11:12.102Z,95.95
2019-05-18T02:12:12.108Z,95.64
2019-05-18T02:13:12.085Z,95.80
2019-05-18T02:14:12.055Z,95.75
2019-05-18T02:15:12.051Z,95.85
2019-05-18T02:16:12.067Z,96.05
2019-05-18T02:17:12.036Z,95.85
2019-05-18T02:18:12.018Z,95.54
2019-05-18T02:19:12.010Z,95.85
2019-05-18T02:20:12.020Z,95.75
2019-05-18T02:21:11.997Z,96.56
2019-05-18T02:22:11.972Z,96.46
2019-05-18T02:23:11.999Z,96.26
2019-05-18T02:24:11.954Z,97.38
2019-05-18T02:25:11.939Z,96.97
2019-05-18T02:26:11.938Z,97.08
2019-05-18T02:27:11.954Z,96.36
2019-05-18T02:28:11.924Z,97.08
2019-05-18T02:29:11.905Z,97.17
2019-05-18T02:30:16.761Z,97.22
2019-05-18T02:31:12.905Z,96.87
2019-05-18T02:32:11.912Z,96.77
2019-05-18T02:33:11.894Z,96.92
2019-05-18T02:34:11.846Z,96.56
2019-05-18T02:35:11.851Z,97.02
2019-05-18T02:36:11.836Z,96.92
2019-05-18T02:37:11.828Z,97.08
2019-05-18T02:38:11.845Z,97.12
2019-05-18T02:39:11.820Z,97.33
2019-05-18T02:40:11.791Z,97.42
2019-05-18T02:41:11.787Z,97.08
2019-05-18T02:42:11.787Z,97.22
2019-05-18T02:43:11.760Z,97.22
2019-05-18T02:44:11.779Z,97.33
2019-05-18T02:45:11.731Z,97.12
2019-05-18T02:46:11.724Z,97.02
2019-05-18T02:47:11.716Z,97.22
2019-05-18T02:48:11.721Z,97.12
2019-05-18T02:49:11.728Z,96.92
2019-05-18T02:50:11.679Z,96.81
2019-05-18T02:51:12.036Z,97.33
2019-05-18T02:52:11.658Z,97.22
2019-05-18T02:53:11.658Z,96.92
2019-05-18T02:54:11.688Z,97.16
2019-05-18T02:55:11.634Z,97.33
2019-05-18T02:56:11.658Z,97.16
2019-05-18T02:57:11.610Z,96.92
2019-05-18T02:58:11.627Z,97.63
2019-05-18T02:59:11.592Z,97.33
2019-05-18T03:00:11.609Z,97.47
2019-05-18T03:01:11.572Z,97.37
2019-05-18T03:02:11.557Z,97.33
2019-05-18T03:03:11.537Z,97.33
2019-05-18T03:04:11.533Z,97.47
2019-05-18T03:05:11.542Z,98.08
2019-05-18T03:06:11.534Z,98.08
2019-05-18T03:07:11.613Z,97.57
2019-05-18T03:08:11.617Z,97.88
2019-05-18T03:09:11.494Z,97.78
2019-05-18T03:10:11.501Z,97.33
2019-05-18T03:11:11.508Z,97.53
2019-05-18T03:12:11.457Z,97.57
2019-05-18T03:13:11.453Z,97.78
2019-05-18T03:14:11.467Z,98.39
2019-05-18T03:15:11.429Z,98.49
2019-05-18T03:16:11.471Z,97.78
2019-05-18T03:17:11.402Z,97.88
2019-05-18T03:18:11.399Z,97.98
2019-05-18T03:19:11.377Z,98.08
2019-05-18T03:20:11.373Z,97.57
2019-05-18T03:21:11.414Z,97.57
2019-05-18T03:22:11.352Z,97.57
2019-05-18T03:23:11.391Z,97.53
2019-05-18T03:24:11.350Z,97.57
2019-05-18T03:25:11.366Z,98.08
2019-05-18T03:26:11.386Z,97.47
2019-05-18T03:27:11.314Z,97.67
2019-05-18T03:28:11.301Z,97.57
2019-05-18T03:29:11.276Z,98.29
2019-05-18T03:30:11.274Z,97.78
2019-05-18T03:31:11.276Z,97.57
2019-05-18T03:32:11.283Z,97.67
2019-05-18T03:33:11.268Z,97.88
2019-05-18T03:34:11.235Z,97.67
2019-05-18T03:35:11.878Z,97.67
2019-05-18T03:36:11.211Z,97.47
2019-05-18T03:37:11.233Z,97.47
2019-05-18T03:38:11.170Z,97.57
2019-05-18T03:39:11.172Z,97.57
2019-05-18T03:40:11.176Z,97.37
2019-05-18T03:41:11.161Z,97.37
2019-05-18T03:42:11.181Z,97.47
2019-05-18T03:43:11.161Z,97.33
2019-05-18T03:44:11.209Z,97.37
2019-05-18T03:45:11.116Z,97.53
2019-05-18T03:46:11.100Z,97.53
2019-05-18T03:47:11.112Z,97.33
2019-05-18T03:48:11.123Z,97.53
2019-05-18T03:49:25.407Z,97.53
2019-05-18T03:50:12.052Z,97.63
2019-05-18T03:51:11.048Z,97.63
2019-05-18T03:52:11.030Z,97.74
2019-05-18T03:53:11.067Z,97.63
2019-05-18T03:54:11.008Z,97.42
2019-05-18T03:55:11.009Z,96.87
2019-05-18T03:56:10.981Z,96.92
2019-05-18T03:57:10.979Z,97.42
2019-05-18T03:58:11.017Z,96.92
2019-05-18T03:59:10.983Z,97.33
2019-05-18T04:00:10.962Z,97.17
2019-05-18T04:01:10.926Z,96.87
2019-05-18T04:02:10.968Z,97.33
2019-05-18T04:03:10.906Z,97.17
2019-05-18T04:04:10.932Z,97.08
2019-05-18T04:05:10.905Z,97.28
2019-05-18T04:06:10.883Z,97.17
2019-05-18T04:07:10.876Z,97.28
2019-05-18T04:08:10.874Z,97.08
2019-05-18T04:09:10.866Z,97.17
2019-05-18T04:10:10.865Z,97.08
2019-05-18T04:11:10.840Z,97.28
2019-05-18T04:12:10.833Z,97.28
2019-05-18T04:13:10.803Z,97.08
2019-05-18T04:14:10.799Z,97.33
2019-05-18T04:15:10.802Z,97.13
2019-05-18T04:16:10.816Z,96.42
2019-05-18T04:17:10.771Z,96.92
2019-05-18T04:18:10.805Z,96.72
2019-05-18T04:19:10.738Z,96.51
2019-05-18T04:20:10.754Z,96.42
2019-05-18T04:21:10.752Z,96.47
2019-05-18T04:22:10.730Z,96.06
2019-05-18T04:23:10.698Z,96.47
2019-05-18T04:24:10.754Z,95.96
2019-05-18T04:25:10.679Z,96.27
2019-05-18T04:26:10.678Z,95.96
2019-05-18T04:27:10.677Z,95.76
2019-05-18T04:28:14.061Z,95.76
2019-05-18T04:29:10.678Z,95.72
2019-05-18T04:30:10.692Z,95.61
2019-05-18T04:31:10.623Z,95.72
2019-05-18T04:32:10.655Z,95.36
2019-05-18T04:33:10.615Z,94.79
2019-05-18T04:34:10.624Z,94.85
2019-05-18T04:35:10.633Z,94.45
2019-05-18T04:36:11.493Z,94.55
2019-05-18T04:37:11.444Z,94.75
2019-05-18T04:38:10.756Z,93.84
2019-05-18T04:39:11.971Z,93.93
2019-05-18T04:40:10.553Z,94.24
2019-05-18T04:41:10.561Z,94.09
2019-05-18T04:42:10.512Z,93.59
2019-05-18T04:43:10.492Z,93.59
2019-05-18T04:44:15.386Z,93.28
2019-05-18T04:45:10.608Z,92.87
2019-05-18T04:46:10.500Z,92.87
2019-05-18T04:47:10.538Z,93.03
2019-05-18T04:48:10.460Z,92.83
2019-05-18T04:49:10.522Z,93.13
2019-05-18T04:50:10.420Z,92.57
2019-05-18T04:51:10.409Z,92.52
2019-05-18T04:52:10.420Z,92.01
2019-05-18T04:53:10.397Z,92.01
2019-05-18T04:54:10.362Z,92.01
2019-05-18T04:55:10.362Z,92.07
2019-05-18T04:56:10.343Z,92.07
2019-05-18T04:57:10.351Z,91.77
2019-05-18T04:58:10.385Z,92.27
2019-05-18T04:59:10.396Z,91.77
2019-05-18T05:00:10.495Z,91.36
2019-05-18T05:01:10.435Z,91.22
2019-05-18T05:02:10.310Z,90.91
2019-05-18T05:03:10.352Z,90.40
2019-05-18T05:04:10.358Z,90.50
2019-05-18T05:05:10.405Z,90.05
2019-05-18T05:06:10.253Z,90.05
2019-05-18T05:07:10.250Z,89.95
2019-05-18T05:08:10.232Z,89.75
2019-05-18T05:09:10.224Z,89.64
2019-05-18T05:10:10.214Z,89.30
2019-05-18T05:11:10.223Z,89.50
2019-05-18T05:12:10.183Z,88.59
2019-05-18T05:13:10.179Z,88.48
2019-05-18T05:14:10.149Z,88.13
2019-05-18T05:15:10.143Z,87.63
2019-05-18T05:16:10.182Z,87.84
2019-05-18T05:17:10.192Z,87.53
2019-05-18T05:18:10.120Z,87.38
2019-05-18T05:19:10.104Z,87.29
2019-05-18T05:20:19.376Z,87.29
2019-05-18T05:21:11.131Z,86.37
2019-05-18T05:22:10.066Z,86.47
2019-05-18T05:23:10.075Z,85.76
2019-05-18T05:24:10.040Z,86.02
2019-05-18T05:25:10.040Z,86.02
2019-05-18T05:26:19.029Z,85.72
2019-05-18T05:27:10.029Z,85.11
2019-05-18T05:28:10.028Z,84.87
2019-05-18T05:29:10.088Z,84.05
2019-05-18T05:30:09.987Z,83.45
2019-05-18T05:31:09.987Z,83.54
2019-05-18T05:32:09.991Z,83.54
2019-05-18T05:33:09.982Z,83.10
2019-05-18T05:34:11.248Z,83.10
2019-05-18T05:35:10.002Z,83.00
2019-05-18T05:36:09.932Z,82.70
2019-05-18T05:37:10.017Z,82.29
2019-05-18T05:38:09.912Z,82.19
2019-05-18T05:39:09.945Z,81.34
2019-05-18T05:40:09.883Z,81.24
2019-05-18T05:41:16.179Z,81.24
2019-05-18T05:42:10.901Z,80.90
2019-05-18T05:43:10.560Z,80.49
2019-05-18T05:44:09.870Z,79.88
2019-05-18T05:45:09.881Z,79.78
2019-05-18T05:46:09.854Z,79.58
2019-05-18T05:47:09.840Z,79.27
2019-05-18T05:48:09.831Z,78.83
2019-05-18T05:49:10.068Z,79.17
2019-05-18T05:50:09.796Z,78.73
2019-05-18T05:51:09.793Z,78.83
2019-05-18T05:52:09.749Z,77.92
2019-05-18T05:53:11.610Z,77.78
2019-05-18T05:54:09.772Z,77.58
2019-05-18T05:55:10.618Z,77.88
2019-05-18T05:56:09.728Z,77.17
2019-05-18T05:57:09.756Z,77.14
2019-05-18T05:58:12.541Z,76.97
2019-05-18T05:59:09.739Z,76.23
2019-05-18T06:00:09.673Z,75.62
2019-05-18T06:01:09.663Z,75.62
2019-05-18T06:02:19.027Z,75.31
2019-05-18T06:03:26.049Z,75.07
2019-05-18T06:05:38.584Z,74.57
2019-05-18T06:06:47.101Z,74.23
2019-05-18T06:07:47.137Z,74.27
2019-05-18T06:08:48.129Z,74.23
2019-05-18T06:09:46.683Z,74.13
2019-05-18T06:10:37.974Z,74.23
2019-05-18T06:11:37.960Z,74.19
2019-05-18T06:12:37.945Z,73.69
2019-05-18T06:13:37.933Z,72.88
2019-05-18T06:14:37.920Z,71.97
2019-05-18T06:15:37.923Z,71.87
2019-05-18T06:16:39.722Z,71.73
2019-05-18T06:17:37.854Z,71.73
2019-05-18T06:18:37.843Z,70.79
2019-05-18T06:19:37.851Z,70.79
2019-05-18T06:20:50.955Z,70.22
2019-05-18T06:21:38.880Z,70.09
2019-05-18T06:22:37.812Z,70.59
2019-05-18T06:23:37.827Z,70.09
2019-05-18T06:24:37.788Z,68.57
2019-05-18T06:25:37.803Z,68.37
2019-05-18T06:26:38.576Z,68.44
2019-05-18T06:27:38.755Z,68.37
2019-05-18T06:28:37.750Z,67.43
2019-05-18T06:29:37.728Z,67.53
2019-05-18T06:30:37.715Z,66.72
2019-05-18T06:31:37.697Z,66.89
2019-05-18T06:32:37.723Z,66.79
2019-05-18T06:33:37.685Z,66.49
2019-05-18T06:34:38.607Z,66.08
2019-05-18T06:35:37.689Z,66.36
2019-05-18T06:36:37.685Z,65.95
2019-05-18T06:37:38.604Z,65.75
2019-05-18T06:38:37.671Z,65.65
2019-05-18T06:39:37.634Z,64.44
2019-05-18T06:40:37.671Z,63.93
2019-05-18T06:41:37.662Z,63.33
2019-05-18T06:42:37.638Z,62.63
2019-05-18T06:43:37.620Z,62.52
2019-05-18T06:44:37.720Z,62.52
2019-05-18T06:45:38.291Z,62.40
2019-05-18T06:46:38.788Z,62.70
2019-05-18T06:47:37.578Z,62.90
2019-05-18T06:48:37.590Z,61.89
2019-05-18T06:49:37.529Z,62.26
2019-05-18T06:50:38.242Z,60.85
2019-05-18T06:51:38.173Z,60.85
2019-05-18T06:52:37.475Z,61.16
2019-05-18T06:53:37.515Z,61.05
2019-05-18T06:54:38.327Z,60.52
2019-05-18T06:55:38.181Z,59.31
2019-05-18T06:56:37.462Z,60.12
2019-05-18T06:57:37.495Z,59.92
2019-05-18T06:58:37.429Z,59.42
2019-05-18T06:59:37.420Z,59.28
2019-05-18T07:00:37.438Z,58.58
2019-05-18T07:01:37.401Z,57.98
2019-05-18T07:02:37.400Z,58.58
2019-05-18T07:03:37.410Z,58.18
2019-05-18T07:04:37.356Z,58.38
2019-05-18T07:05:37.435Z,58.35
2019-05-18T07:06:38.129Z,58.55
2019-05-18T07:07:37.354Z,58.45
2019-05-18T07:08:37.336Z,57.55
2019-05-18T07:09:38.351Z,57.35
2019-05-18T07:10:37.316Z,57.24
2019-05-18T07:11:38.108Z,56.92
2019-05-18T07:12:37.291Z,56.41
2019-05-18T07:13:37.357Z,56.71
2019-05-18T07:14:37.387Z,57.12
2019-05-18T07:15:37.280Z,57.42
2019-05-18T07:16:37.226Z,56.79
2019-05-18T07:17:37.227Z,56.49
2019-05-18T07:18:37.227Z,56.59
2019-05-18T07:19:37.203Z,56.29
2019-05-18T07:20:37.183Z,56.09
2019-05-18T07:21:37.203Z,56.09
2019-05-18T07:22:37.173Z,55.96
2019-05-18T07:23:37.169Z,56.06
2019-05-18T07:24:37.244Z,55.86
2019-05-18T07:25:37.136Z,55.66
2019-05-18T07:26:37.303Z,55.35
2019-05-18T07:27:37.169Z,55.93
2019-05-18T07:28:37.113Z,55.73
2019-05-18T07:29:37.104Z,55.03
2019-05-18T07:30:37.126Z,55.43
2019-05-18T07:31:37.620Z,55.33
2019-05-18T07:32:37.058Z,54.50
2019-05-18T07:33:37.058Z,54.50
2019-05-18T07:34:37.087Z,53.70
2019-05-18T07:35:38.115Z,53.39
2019-05-18T07:36:37.050Z,53.70
2019-05-18T07:37:37.042Z,54.40
2019-05-18T07:38:37.050Z,53.90
2019-05-18T07:39:36.980Z,53.59
2019-05-18T07:40:36.988Z,54.10
2019-05-18T07:41:46.370Z,53.72
2019-05-18T07:42:38.018Z,54.22
2019-05-18T07:43:37.142Z,55.13
2019-05-18T07:44:37.051Z,54.00
2019-05-18T07:45:36.964Z,54.60
2019-05-18T07:46:36.971Z,53.39
2019-05-18T07:47:37.082Z,53.59
2019-05-18T07:48:38.626Z,53.59
2019-05-18T07:49:37.086Z,53.50
2019-05-18T07:51:55.019Z,53.77
2019-05-18T07:52:55.601Z,53.37
2019-05-18T07:53:54.365Z,53.07
2019-05-18T07:55:01.089Z,52.47
2019-05-18T07:55:54.259Z,52.17
2019-05-18T07:56:54.240Z,53.64
2019-05-18T07:57:54.216Z,53.85
2019-05-18T07:58:54.419Z,53.25
2019-05-18T07:59:54.222Z,52.32
2019-05-18T08:00:54.186Z,52.44
2019-05-18T08:01:54.273Z,52.42
2019-05-18T08:02:55.078Z,52.42
2019-05-18T08:03:55.082Z,52.42
2019-05-18T08:04:54.175Z,51.92
2019-05-18T08:05:54.199Z,51.72
2019-05-18T08:06:54.169Z,51.12
2019-05-18T08:07:54.184Z,50.92
2019-05-18T08:08:54.148Z,51.72
2019-05-18T08:09:54.159Z,51.12
2019-05-18T08:10:54.182Z,50.51
2019-05-18T08:11:54.138Z,51.21
2019-05-18T08:12:54.149Z,50.31
2019-05-18T08:13:54.126Z,51.21
2019-05-18T08:14:54.052Z,50.51
2019-05-18T08:15:54.079Z,50.62
2019-05-18T08:16:54.065Z,51.42
2019-05-18T08:17:54.587Z,50.62
2019-05-18T08:18:54.064Z,50.42
2019-05-18T08:19:54.045Z,51.82
2019-05-18T08:20:54.025Z,50.51
2019-05-18T08:21:54.025Z,51.32
2019-05-18T08:22:54.695Z,51.69
2019-05-18T08:23:53.978Z,51.99
2019-05-18T08:24:53.959Z,51.29
2019-05-18T08:25:54.023Z,50.69
2019-05-18T08:26:54.966Z,49.99
2019-05-18T08:27:54.045Z,50.99
2019-05-18T08:28:53.917Z,50.49
2019-05-18T08:29:53.951Z,50.89
2019-05-18T08:30:53.882Z,50.59
2019-05-18T08:31:53.864Z,50.79
2019-05-18T08:32:53.933Z,50.79
2019-05-18T08:33:53.881Z,50.19
2019-05-18T08:34:53.882Z,50.67
2019-05-18T08:35:53.885Z,50.49
2019-05-18T08:36:53.923Z,50.46
2019-05-18T08:37:53.808Z,50.49
2019-05-18T08:38:54.589Z,51.37
2019-05-18T08:39:53.869Z,50.67
2019-05-18T08:40:54.597Z,49.76
2019-05-18T08:41:54.597Z,49.66
2019-05-18T08:42:53.729Z,50.26
2019-05-18T08:43:54.253Z,49.66
2019-05-18T08:44:53.744Z,50.16
2019-05-18T08:45:53.806Z,50.54
2019-05-18T08:46:53.747Z,50.04
2019-05-18T08:47:53.704Z,50.04
2019-05-18T08:48:54.594Z,50.54
2019-05-18T08:49:53.688Z,49.52
2019-05-18T08:50:53.927Z,49.62
2019-05-18T08:52:07.485Z,49.52
2019-05-18T08:52:54.841Z,50.02
2019-05-18T08:53:53.644Z,50.39
2019-05-18T08:54:53.689Z,50.09
2019-05-18T08:55:53.705Z,49.11
2019-05-18T08:56:53.704Z,48.60
2019-05-18T08:57:53.710Z,48.60
2019-05-18T08:58:53.738Z,48.19
2019-05-18T08:59:53.667Z,49.29
2019-05-18T09:00:53.557Z,49.59
2019-05-18T09:01:53.702Z,48.29
2019-05-18T09:02:53.761Z,48.57
2019-05-18T09:03:53.573Z,48.77
2019-05-18T09:04:53.562Z,47.67
2019-05-18T09:05:53.559Z,48.29
2019-05-18T09:06:53.532Z,47.47
2019-05-18T09:07:53.525Z,47.67
2019-05-18T09:08:53.465Z,47.07
2019-05-18T09:09:54.367Z,47.47
2019-05-18T09:10:53.611Z,47.49
2019-05-18T09:11:53.497Z,47.79
2019-05-18T09:12:53.589Z,48.29
2019-05-18T09:13:53.415Z,48.39
2019-05-18T09:14:53.579Z,48.42
2019-05-18T09:15:53.450Z,49.22
2019-05-18T09:16:53.409Z,49.32
2019-05-18T09:17:53.387Z,48.61
2019-05-18T09:18:53.354Z,49.32
2019-05-18T09:19:53.410Z,48.42
2019-05-18T09:20:53.386Z,48.61
2019-05-18T09:21:53.332Z,49.49
2019-05-18T09:22:57.080Z,49.99
2019-05-18T09:23:53.338Z,49.40
2019-05-18T09:24:53.347Z,49.07
2019-05-18T09:25:53.323Z,49.07
2019-05-18T09:26:53.296Z,48.17
2019-05-18T09:27:54.294Z,49.67
2019-05-18T09:28:53.289Z,49.07
2019-05-18T09:29:53.275Z,48.27
2019-05-18T09:30:54.106Z,48.57
2019-05-18T09:31:53.389Z,48.67
2019-05-18T09:32:53.310Z,48.87
2019-05-18T09:33:53.253Z,49.07
2019-05-18T09:34:53.219Z,49.55
2019-05-18T09:35:53.319Z,48.05
2019-05-18T09:36:53.213Z,47.57
2019-05-18T09:37:53.187Z,48.07
2019-05-18T09:38:53.193Z,48.37
2019-05-18T09:39:53.157Z,48.07
2019-05-18T09:40:53.115Z,49.27
2019-05-18T09:41:53.215Z,47.65
2019-05-18T09:42:53.218Z,46.45
2019-05-18T09:43:53.091Z,46.65
2019-05-18T09:44:53.166Z,46.67
2019-05-18T09:45:53.130Z,47.17
2019-05-18T09:46:53.118Z,46.57
2019-05-18T09:47:53.111Z,46.97
2019-05-18T09:48:53.045Z,47.37
2019-05-18T09:49:53.076Z,48.27
2019-05-18T09:50:53.031Z,47.65
2019-05-18T09:51:53.127Z,47.17
2019-05-18T09:52:52.995Z,48.65
2019-05-18T09:53:53.025Z,47.65
2019-05-18T09:54:53.708Z,46.45
2019-05-18T09:55:52.965Z,45.75
2019-05-18T09:56:52.987Z,46.85
2019-05-18T09:57:53.193Z,47.65
2019-05-18T09:58:53.008Z,47.22
2019-05-18T09:59:53.231Z,45.95
2019-05-18T10:00:52.940Z,46.45
2019-05-18T10:01:52.918Z,46.45
2019-05-18T10:02:53.617Z,46.05
2019-05-18T10:03:52.902Z,45.95
2019-05-18T10:04:52.975Z,45.35
2019-05-18T10:05:52.861Z,46.15
2019-05-18T10:06:53.906Z,46.03
2019-05-18T10:07:52.869Z,46.85
2019-05-18T10:08:52.844Z,46.13
2019-05-18T10:09:52.856Z,46.33
2019-05-18T10:10:53.707Z,46.62
2019-05-18T10:11:52.799Z,45.90
2019-05-18T10:12:52.793Z,47.10
2019-05-18T10:13:52.830Z,45.31
2019-05-18T10:14:53.723Z,45.63
2019-05-18T10:15:52.814Z,46.50
2019-05-18T10:16:52.799Z,46.70
2019-05-18T10:17:52.755Z,47.50
2019-05-18T10:18:52.741Z,46.28
2019-05-18T10:19:52.703Z,46.58
2019-05-18T10:20:52.726Z,46.20
2019-05-18T10:21:52.920Z,46.31
2019-05-18T10:23:04.180Z,46.50
2019-05-18T10:23:53.675Z,46.38
2019-05-18T10:24:52.668Z,45.98
2019-05-18T10:25:52.680Z,45.59
2019-05-18T10:26:52.696Z,45.56
2019-05-18T10:27:52.684Z,45.26
2019-05-18T10:28:52.676Z,45.04
2019-05-18T10:29:52.636Z,44.35
2019-05-18T10:30:52.606Z,44.74
2019-05-18T10:31:52.599Z,43.95
2019-05-18T10:32:52.604Z,44.05
2019-05-18T10:33:52.596Z,43.67
2019-05-18T10:34:52.581Z,44.45
2019-05-18T10:35:52.556Z,44.54
2019-05-18T10:36:52.611Z,44.54
2019-05-18T10:37:52.589Z,44.05
2019-05-18T10:38:52.553Z,44.05
2019-05-18T10:39:52.534Z,43.65
2019-05-18T10:40:52.529Z,44.17
2019-05-18T10:41:52.494Z,44.35
2019-05-18T10:42:52.505Z,43.75
2019-05-18T10:43:52.502Z,43.73
2019-05-18T10:44:52.498Z,42.63
2019-05-18T10:45:52.481Z,43.75
2019-05-18T10:46:52.485Z,43.95
2019-05-18T10:47:52.467Z,43.52
2019-05-18T10:48:52.537Z,44.65
2019-05-18T10:49:52.440Z,44.74
2019-05-18T10:50:52.477Z,44.54
2019-05-18T10:51:52.444Z,45.26
2019-05-18T10:52:52.399Z,45.34
2019-05-18T10:53:52.399Z,44.53
2019-05-18T10:54:53.138Z,44.02
2019-05-18T10:55:52.360Z,44.10
2019-05-18T10:56:52.373Z,44.60
2019-05-18T10:57:52.338Z,43.79
2019-05-18T10:58:52.342Z,43.49
2019-05-18T10:59:52.342Z,43.98
2019-05-18T11:00:53.242Z,43.88
2019-05-18T11:01:52.325Z,42.69
2019-05-18T11:02:52.272Z,42.81
2019-05-18T11:03:52.284Z,44.28
2019-05-18T11:04:52.278Z,42.69
2019-05-18T11:05:52.314Z,42.27
2019-05-18T11:06:52.270Z,43.35
2019-05-18T11:07:52.227Z,43.74
2019-05-18T11:08:52.232Z,43.64
2019-05-18T11:09:52.229Z,42.57
2019-05-18T11:10:52.183Z,42.77
2019-05-18T11:11:52.199Z,41.47
2019-05-18T11:12:52.248Z,42.29
2019-05-18T11:13:52.158Z,43.59
2019-05-18T11:14:52.143Z,44.60
2019-05-18T11:15:52.157Z,44.23
2019-05-18T11:16:52.123Z,43.71
2019-05-18T11:17:52.134Z,44.88
2019-05-18T11:18:52.136Z,43.68
2019-05-18T11:19:52.183Z,43.68
2019-05-18T11:20:53.161Z,43.46
2019-05-18T11:21:52.102Z,44.16
2019-05-18T11:22:52.091Z,43.86
2019-05-18T11:23:52.084Z,43.57
2019-05-18T11:24:52.134Z,43.76
2019-05-18T11:25:52.146Z,43.59
2019-05-18T11:26:52.043Z,44.58
2019-05-18T11:27:52.046Z,44.14
2019-05-18T11:28:52.315Z,43.05
2019-05-18T11:29:52.046Z,43.44
2019-05-18T11:30:52.647Z,43.86
2019-05-18T11:31:52.653Z,43.24
2019-05-18T11:32:52.032Z,43.35
2019-05-18T11:33:51.984Z,44.26
2019-05-18T11:34:52.016Z,43.57
2019-05-18T11:35:51.943Z,43.84
2019-05-18T11:36:51.954Z,43.86
2019-05-18T11:37:52.649Z,43.37
2019-05-18T11:38:51.903Z,43.79
2019-05-18T11:39:51.926Z,44.28
2019-05-18T11:40:51.871Z,44.26
2019-05-18T11:41:51.907Z,44.68
2019-05-18T11:42:51.946Z,44.46
2019-05-18T11:43:51.917Z,44.24
2019-05-18T11:44:51.877Z,43.15
2019-05-18T11:45:51.819Z,42.53
2019-05-18T11:46:51.813Z,42.55
2019-05-18T11:47:51.854Z,43.54
2019-05-18T11:48:51.876Z,43.64
2019-05-18T11:49:51.879Z,43.37
2019-05-18T11:50:51.817Z,43.96
2019-05-18T11:51:51.809Z,43.46
2019-05-18T11:52:51.809Z,42.47
2019-05-18T11:53:58.275Z,42.69
2019-05-18T11:54:52.734Z,42.67
2019-05-18T11:55:51.750Z,42.97
2019-05-18T11:56:51.728Z,42.57
2019-05-18T11:57:51.734Z,42.49
2019-05-18T11:58:51.774Z,42.77
2019-05-18T11:59:51.742Z,42.49
2019-05-18T12:00:51.714Z,42.89
2019-05-18T12:01:52.661Z,41.22
2019-05-18T12:02:52.665Z,39.57
2019-05-18T12:03:51.655Z,40.07
2019-05-18T12:04:52.160Z,40.38
2019-05-18T12:05:51.791Z,40.88
2019-05-18T12:07:01.191Z,39.04
2019-05-18T12:08:16.378Z,38.92
2019-05-18T12:08:52.060Z,37.71
2019-05-18T12:09:52.364Z,38.09
2019-05-18T12:13:53.272Z,33.72
2019-05-18T12:15:27.514Z,33.54
2019-05-18T12:17:40.726Z,31.60
2019-05-18T12:18:38.904Z,32.07
2019-05-18T12:19:38.973Z,31.84
2019-05-18T12:20:38.073Z,30.14
2019-05-18T12:21:38.058Z,29.21
2019-05-18T12:51:01.224Z,35.73
2019-05-18T12:51:59.577Z,34.86
2019-05-18T12:52:59.471Z,35.17
2019-05-18T12:53:59.480Z,35.16
2019-05-18T12:54:59.452Z,33.89
2019-05-18T12:55:59.979Z,33.54
2019-05-18T13:04:24.683Z,26.83
2019-05-18T13:13:22.421Z,22.36
2019-05-18T13:14:22.100Z,22.16
2019-05-18T13:15:20.751Z,22.34
2019-05-18T13:16:19.174Z,21.45
2019-05-18T13:17:27.246Z,21.79
2019-05-18T13:18:27.657Z,22.60
2019-05-18T13:19:16.715Z,22.48
2019-05-18T13:20:15.159Z,22.72
2019-05-18T13:21:13.912Z,24.12
2019-05-18T13:22:14.708Z,24.50
2019-05-18T13:23:14.685Z,23.61
2019-05-18T13:24:42.990Z,23.41
2019-05-18T13:25:15.011Z,24.24
2019-05-18T13:26:14.659Z,24.71
2019-05-18T13:27:14.908Z,24.68
2019-05-18T13:28:14.698Z,24.40
2019-05-18T13:29:13.873Z,23.99
2019-05-18T13:30:19.555Z,22.79
2019-05-18T13:31:14.669Z,23.61
2019-05-18T13:32:14.670Z,23.91
2019-05-18T13:33:15.347Z,25.10
2019-05-18T13:34:14.899Z,25.12
2019-05-18T13:35:15.745Z,25.81
2019-05-18T13:36:13.818Z,25.60
2019-05-18T13:37:14.671Z,25.49
2019-05-18T13:38:18.022Z,25.00
2019-05-18T13:39:13.756Z,23.90
2019-05-18T13:40:21.541Z,24.28
2019-05-18T13:41:15.484Z,23.77
2019-05-18T13:42:24.302Z,22.21
2019-05-18T13:43:13.649Z,22.10